sensor_id;sensor_type;location;lat;lon;timestamp;pressure;altitude;pressure_sealevel;temperature;humidity
55456;BME280;63021;52.836;6.376;2022-11-20T00:00:56;101527.28;;;-2.50;78.77
55456;BME280;63021;52.836;6.376;2022-11-20T00:03:22;101533.25;;;-2.47;78.36
55456;BME280;63021;52.836;6.376;2022-11-20T00:05:48;101527.94;;;-2.44;79.26
55456;BME280;63021;52.836;6.376;2022-11-20T00:08:13;101525.25;;;-2.40;79.24
55456;BME280;63021;52.836;6.376;2022-11-20T00:10:39;101530.31;;;-2.36;78.84
55456;BME280;63021;52.836;6.376;2022-11-20T00:13:06;101529.31;;;-2.32;79.25
55456;BME280;63021;52.836;6.376;2022-11-20T00:15:32;101537.91;;;-2.28;78.52
55456;BME280;63021;52.836;6.376;2022-11-20T00:17:57;101541.31;;;-2.26;78.47
55456;BME280;63021;52.836;6.376;2022-11-20T00:20:23;101544.81;;;-2.25;78.64
55456;BME280;63021;52.836;6.376;2022-11-20T00:22:49;101536.97;;;-2.25;78.78
55456;BME280;63021;52.836;6.376;2022-11-20T00:25:15;101536.97;;;-2.25;78.87
55456;BME280;63021;52.836;6.376;2022-11-20T00:27:41;101532.44;;;-2.20;78.41
55456;BME280;63021;52.836;6.376;2022-11-20T00:30:07;101528.91;;;-2.18;78.64
55456;BME280;63021;52.836;6.376;2022-11-20T00:32:33;101537.63;;;-2.19;78.67
55456;BME280;63021;52.836;6.376;2022-11-20T00:34:58;101529.84;;;-2.20;78.92
55456;BME280;63021;52.836;6.376;2022-11-20T00:37:23;101529.69;;;-2.16;79.15
55456;BME280;63021;52.836;6.376;2022-11-20T00:39:49;101526.97;;;-2.13;78.45
55456;BME280;63021;52.836;6.376;2022-11-20T00:42:14;101531.25;;;-2.10;78.60
55456;BME280;63021;52.836;6.376;2022-11-20T00:44:39;101531.16;;;-2.07;79.13
55456;BME280;63021;52.836;6.376;2022-11-20T00:47:05;101524.94;;;-2.03;79.20
55456;BME280;63021;52.836;6.376;2022-11-20T00:49:30;101526.59;;;-2.00;78.73
55456;BME280;63021;52.836;6.376;2022-11-20T00:51:55;101518.63;;;-1.96;78.70
55456;BME280;63021;52.836;6.376;2022-11-20T00:54:21;101519.38;;;-1.92;79.23
55456;BME280;63021;52.836;6.376;2022-11-20T00:56:46;101506.19;;;-1.87;79.48
55456;BME280;63021;52.836;6.376;2022-11-20T00:59:12;101500.97;;;-1.87;79.47
55456;BME280;63021;52.836;6.376;2022-11-20T01:01:37;101506.84;;;-1.81;79.31
55456;BME280;63021;52.836;6.376;2022-11-20T01:04:03;101499.75;;;-1.77;78.77
55456;BME280;63021;52.836;6.376;2022-11-20T01:06:34;101495.28;;;-1.73;79.15
55456;BME280;63021;52.836;6.376;2022-11-20T01:09:02;101502.19;;;-1.72;78.90
55456;BME280;63021;52.836;6.376;2022-11-20T01:11:33;101502.19;;;-1.71;79.21
55456;BME280;63021;52.836;6.376;2022-11-20T01:14:01;101498.63;;;-1.70;79.26
55456;BME280;63021;52.836;6.376;2022-11-20T01:16:28;101498.53;;;-1.67;79.63
55456;BME280;63021;52.836;6.376;2022-11-20T01:18:56;101494.13;;;-1.65;79.73
55456;BME280;63021;52.836;6.376;2022-11-20T01:21:28;101497.53;;;-1.63;78.58
55456;BME280;63021;52.836;6.376;2022-11-20T01:23:54;101500.13;;;-1.63;79.56
55456;BME280;63021;52.836;6.376;2022-11-20T01:26:23;101494.84;;;-1.61;79.28
55456;BME280;63021;52.836;6.376;2022-11-20T01:28:50;101493.00;;;-1.58;78.94
55456;BME280;63021;52.836;6.376;2022-11-20T01:31:27;101496.41;;;-1.55;78.62
55456;BME280;63021;52.836;6.376;2022-11-20T01:33:54;101499.03;;;-1.55;78.64
55456;BME280;63021;52.836;6.376;2022-11-20T01:36:22;101499.03;;;-1.55;79.34
55456;BME280;63021;52.836;6.376;2022-11-20T01:38:51;101494.63;;;-1.53;78.78
55456;BME280;63021;52.836;6.376;2022-11-20T01:41:18;101485.78;;;-1.51;78.74
55456;BME280;63021;52.836;6.376;2022-11-20T01:44:03;101484.06;;;-1.50;78.70
55456;BME280;63021;52.836;6.376;2022-11-20T01:46:29;101480.50;;;-1.48;79.24
55456;BME280;63021;52.836;6.376;2022-11-20T01:49:10;101485.59;;;-1.45;79.63
55456;BME280;63021;52.836;6.376;2022-11-20T01:51:44;101477.78;;;-1.45;79.18
55456;BME280;63021;52.836;6.376;2022-11-20T01:54:15;101475.94;;;-1.43;79.21
55456;BME280;63021;52.836;6.376;2022-11-20T01:56:44;101474.09;;;-1.39;79.06
55456;BME280;63021;52.836;6.376;2022-11-20T01:59:12;101482.59;;;-1.34;78.94
55456;BME280;63021;52.836;6.376;2022-11-20T02:01:38;101476.47;;;-1.33;78.88
55456;BME280;63021;52.836;6.376;2022-11-20T02:04:04;101468.59;;;-1.31;79.30
55456;BME280;63021;52.836;6.376;2022-11-20T02:06:42;101464.13;;;-1.28;79.08
55456;BME280;63021;52.836;6.376;2022-11-20T02:09:09;101460.56;;;-1.27;79.45
55456;BME280;63021;52.836;6.376;2022-11-20T02:11:34;101459.63;;;-1.24;78.99
55456;BME280;63021;52.836;6.376;2022-11-20T02:13:59;101457.81;;;-1.22;79.35
55456;BME280;63021;52.836;6.376;2022-11-20T02:16:30;101452.53;;;-1.20;79.43
55456;BME280;63021;52.836;6.376;2022-11-20T02:18:59;101447.19;;;-1.17;79.00
55456;BME280;63021;52.836;6.376;2022-11-20T02:24:09;101447.06;;;-1.14;79.51
55456;BME280;63021;52.836;6.376;2022-11-20T02:26:44;101446.16;;;-1.13;79.22
55456;BME280;63021;52.836;6.376;2022-11-20T02:29:13;101436.56;;;-1.13;79.40
55456;BME280;63021;52.836;6.376;2022-11-20T02:31:42;101438.22;;;-1.10;79.66
55456;BME280;63021;52.836;6.376;2022-11-20T02:34:08;101436.44;;;-1.10;79.25
55456;BME280;63021;52.836;6.376;2022-11-20T02:36:35;101440.72;;;-1.07;79.04
55456;BME280;63021;52.836;6.376;2022-11-20T02:39:03;101449.28;;;-1.03;79.48
55456;BME280;63021;52.836;6.376;2022-11-20T02:41:33;101436.19;;;-1.03;79.38
55456;BME280;63021;52.836;6.376;2022-11-20T02:43:59;101439.69;;;-1.03;78.94
55456;BME280;63021;52.836;6.376;2022-11-20T02:46:25;101430.06;;;-1.02;79.51
55456;BME280;63021;52.836;6.376;2022-11-20T02:48:50;101426.63;;;-1.03;78.79
55456;BME280;63021;52.836;6.376;2022-11-20T02:51:15;101437.91;;;-1.02;79.64
55456;BME280;63021;52.836;6.376;2022-11-20T02:53:44;101426.63;;;-1.03;78.73
55456;BME280;63021;52.836;6.376;2022-11-20T02:56:11;101430.13;;;-1.04;78.97
55456;BME280;63021;52.836;6.376;2022-11-20T02:58:37;101420.53;;;-1.03;79.63
55456;BME280;63021;52.836;6.376;2022-11-20T03:01:02;101419.69;;;-1.04;78.95
55456;BME280;63021;52.836;6.376;2022-11-20T03:03:28;101422.22;;;-1.02;78.48
55456;BME280;63021;52.836;6.376;2022-11-20T03:05:53;101430.06;;;-1.02;79.29
55456;BME280;63021;52.836;6.376;2022-11-20T03:08:22;101423.88;;;-1.00;79.12
55456;BME280;63021;52.836;6.376;2022-11-20T03:10:48;101423.88;;;-1.00;78.61
55456;BME280;63021;52.836;6.376;2022-11-20T03:13:13;101417.81;;;-1.00;78.76
55456;BME280;63021;52.836;6.376;2022-11-20T03:15:38;101419.50;;;-0.99;79.67
55456;BME280;63021;52.836;6.376;2022-11-20T03:18:04;101417.63;;;-0.96;79.34
55456;BME280;63021;52.836;6.376;2022-11-20T03:20:29;101414.97;;;-0.94;79.09
55456;BME280;63021;52.836;6.376;2022-11-20T03:22:55;101415.69;;;-0.91;78.97
55456;BME280;63021;52.836;6.376;2022-11-20T03:25:21;101406.88;;;-0.88;78.71
55456;BME280;63021;52.836;6.376;2022-11-20T03:27:47;101401.59;;;-0.87;79.06
55456;BME280;63021;52.836;6.376;2022-11-20T03:30:14;101397.16;;;-0.84;79.11
55456;BME280;63021;52.836;6.376;2022-11-20T03:32:45;101400.56;;;-0.82;79.49
55456;BME280;63021;52.836;6.376;2022-11-20T03:35:12;101396.09;;;-0.79;79.31
55456;BME280;63021;52.836;6.376;2022-11-20T03:37:38;101397.81;;;-0.79;79.30
55456;BME280;63021;52.836;6.376;2022-11-20T03:40:03;101403.84;;;-0.77;78.86
55456;BME280;63021;52.836;6.376;2022-11-20T03:42:29;101403.00;;;-0.78;79.20
55456;BME280;63021;52.836;6.376;2022-11-20T03:45:15;101389.84;;;-0.76;79.27
55456;BME280;63021;52.836;6.376;2022-11-20T03:47:40;101388.03;;;-0.74;79.11
55456;BME280;63021;52.836;6.376;2022-11-20T03:50:07;101379.25;;;-0.72;78.78
55456;BME280;63021;52.836;6.376;2022-11-20T03:52:35;101378.31;;;-0.71;79.07
55456;BME280;63021;52.836;6.376;2022-11-20T03:55:02;101380.91;;;-0.71;79.05
55456;BME280;63021;52.836;6.376;2022-11-20T03:57:27;101376.69;;;-0.73;79.30
55456;BME280;63021;52.836;6.376;2022-11-20T03:59:53;101363.63;;;-0.73;79.02
55456;BME280;63021;52.836;6.376;2022-11-20T04:02:18;101362.75;;;-0.74;79.67
55456;BME280;63021;52.836;6.376;2022-11-20T04:04:43;101363.56;;;-0.72;78.81
55456;BME280;63021;52.836;6.376;2022-11-20T04:07:09;101355.66;;;-0.70;78.77
55456;BME280;63021;52.836;6.376;2022-11-20T04:09:37;101352.16;;;-0.71;79.08
55456;BME280;63021;52.836;6.376;2022-11-20T04:12:03;101352.91;;;-0.67;79.51
55456;BME280;63021;52.836;6.376;2022-11-20T04:14:29;101347.59;;;-0.65;79.69
55456;BME280;63021;52.836;6.376;2022-11-20T04:16:54;101342.38;;;-0.65;79.67
55456;BME280;63021;52.836;6.376;2022-11-20T04:19:19;101348.31;;;-0.62;78.92
55456;BME280;63021;52.836;6.376;2022-11-20T04:21:45;101341.41;;;-0.63;79.44
55456;BME280;63021;52.836;6.376;2022-11-20T04:24:10;101345.69;;;-0.62;79.67
55456;BME280;63021;52.836;6.376;2022-11-20T04:26:36;101350.03;;;-0.61;79.87
55456;BME280;63021;52.836;6.376;2022-11-20T04:29:03;101358.00;;;-0.64;79.26
55456;BME280;63021;52.836;6.376;2022-11-20T04:31:31;101356.22;;;-0.63;78.60
55456;BME280;63021;52.836;6.376;2022-11-20T04:34:02;101366.63;;;-0.62;78.80
55456;BME280;63021;52.836;6.376;2022-11-20T04:36:29;101373.56;;;-0.61;79.37
55456;BME280;63021;52.836;6.376;2022-11-20T04:38:57;101370.09;;;-0.61;78.89
55456;BME280;63021;52.836;6.376;2022-11-20T04:41:29;101359.72;;;-0.63;79.48
55456;BME280;63021;52.836;6.376;2022-11-20T04:43:58;101351.94;;;-0.64;79.13
55456;BME280;63021;52.836;6.376;2022-11-20T04:46:29;101352.78;;;-0.64;78.65
55456;BME280;63021;52.836;6.376;2022-11-20T04:48:55;101360.69;;;-0.65;79.57
55456;BME280;63021;52.836;6.376;2022-11-20T04:51:21;101365.06;;;-0.66;79.34
55456;BME280;63021;52.836;6.376;2022-11-20T04:53:46;101347.59;;;-0.65;79.33
55456;BME280;63021;52.836;6.376;2022-11-20T04:56:12;101330.94;;;-0.63;79.33
55456;BME280;63021;52.836;6.376;2022-11-20T04:58:39;101330.94;;;-0.63;78.69
55456;BME280;63021;52.836;6.376;2022-11-20T05:01:11;101326.50;;;-0.61;79.24
55456;BME280;63021;52.836;6.376;2022-11-20T05:03:37;101329.03;;;-0.59;79.30
55456;BME280;63021;52.836;6.376;2022-11-20T05:06:04;101344.66;;;-0.58;79.54
55456;BME280;63021;52.836;6.376;2022-11-20T05:08:30;101339.38;;;-0.56;79.45
55456;BME280;63021;52.836;6.376;2022-11-20T05:11:03;101329.72;;;-0.54;79.13
55456;BME280;63021;52.836;6.376;2022-11-20T05:13:29;101320.97;;;-0.53;79.20
55456;BME280;63021;52.836;6.376;2022-11-20T05:15:54;101320.03;;;-0.52;78.76
55456;BME280;63021;52.836;6.376;2022-11-20T05:18:20;101317.41;;;-0.52;79.64
55456;BME280;63021;52.836;6.376;2022-11-20T05:20:45;101321.66;;;-0.49;79.01
55456;BME280;63021;52.836;6.376;2022-11-20T05:23:10;101319.88;;;-0.47;80.07
55456;BME280;63021;52.836;6.376;2022-11-20T05:25:36;101310.25;;;-0.47;79.11
55456;BME280;63021;52.836;6.376;2022-11-20T05:28:01;101300.47;;;-0.43;79.89
55456;BME280;63021;52.836;6.376;2022-11-20T05:30:26;101303.09;;;-0.43;79.10
55456;BME280;63021;52.836;6.376;2022-11-20T05:32:52;101297.03;;;-0.44;79.43
55456;BME280;63021;52.836;6.376;2022-11-20T05:35:17;101293.56;;;-0.44;79.46
55456;BME280;63021;52.836;6.376;2022-11-20T05:37:42;101290.00;;;-0.43;79.76
55456;BME280;63021;52.836;6.376;2022-11-20T05:40:08;101287.34;;;-0.42;79.55
55456;BME280;63021;52.836;6.376;2022-11-20T05:42:34;101289.94;;;-0.42;79.17
55456;BME280;63021;52.836;6.376;2022-11-20T05:45:02;101286.50;;;-0.42;78.84
55456;BME280;63021;52.836;6.376;2022-11-20T05:47:32;101282.16;;;-0.43;79.67
55456;BME280;63021;52.836;6.376;2022-11-20T05:49:58;101284.84;;;-0.45;79.26
55456;BME280;63021;52.836;6.376;2022-11-20T05:52:24;101271.06;;;-0.48;79.12
55456;BME280;63021;52.836;6.376;2022-11-20T05:54:49;101284.22;;;-0.50;79.44
55456;BME280;63021;52.836;6.376;2022-11-20T05:57:15;101267.72;;;-0.52;78.92
55456;BME280;63021;52.836;6.376;2022-11-20T05:59:40;101275.56;;;-0.52;79.13
55456;BME280;63021;52.836;6.376;2022-11-20T06:02:05;101275.56;;;-0.52;79.70
55456;BME280;63021;52.836;6.376;2022-11-20T06:04:31;101273.88;;;-0.53;79.57
55456;BME280;63021;52.836;6.376;2022-11-20T06:06:56;101290.41;;;-0.53;78.98
55456;BME280;63021;52.836;6.376;2022-11-20T06:09:21;101307.97;;;-0.55;79.06
55456;BME280;63021;52.836;6.376;2022-11-20T06:11:47;101315.06;;;-0.58;79.05
55456;BME280;63021;52.836;6.376;2022-11-20T06:14:12;101307.41;;;-0.63;79.11
55456;BME280;63021;52.836;6.376;2022-11-20T06:16:37;101312.72;;;-0.64;78.89
55456;BME280;63021;52.836;6.376;2022-11-20T06:19:03;101326.63;;;-0.64;78.93
55456;BME280;63021;52.836;6.376;2022-11-20T06:21:28;101319.56;;;-0.62;79.10
55456;BME280;63021;52.836;6.376;2022-11-20T06:23:54;101304.72;;;-0.61;79.15
55456;BME280;63021;52.836;6.376;2022-11-20T06:26:21;101306.31;;;-0.57;78.71
55456;BME280;63021;52.836;6.376;2022-11-20T06:28:47;101319.25;;;-0.54;79.85
55456;BME280;63021;52.836;6.376;2022-11-20T06:31:15;101325.25;;;-0.52;79.76
55456;BME280;63021;52.836;6.376;2022-11-20T06:33:42;101313.88;;;-0.51;78.76
55456;BME280;63021;52.836;6.376;2022-11-20T06:36:11;101313.75;;;-0.48;79.93
55456;BME280;63021;52.836;6.376;2022-11-20T06:38:38;101316.31;;;-0.46;78.62
55456;BME280;63021;52.836;6.376;2022-11-20T06:41:04;101315.47;;;-0.47;79.52
55456;BME280;63021;52.836;6.376;2022-11-20T06:43:30;101320.44;;;-0.41;78.83
55456;BME280;63021;52.836;6.376;2022-11-20T06:45:57;101309.91;;;-0.39;78.84
55456;BME280;63021;52.836;6.376;2022-11-20T06:48:23;101309.00;;;-0.38;79.27
55456;BME280;63021;52.836;6.376;2022-11-20T06:50:49;101301.00;;;-0.35;78.77
55456;BME280;63021;52.836;6.376;2022-11-20T06:53:16;101303.63;;;-0.35;78.93
55456;BME280;63021;52.836;6.376;2022-11-20T06:55:46;101307.06;;;-0.33;79.02
55456;BME280;63021;52.836;6.376;2022-11-20T06:58:13;101298.25;;;-0.32;79.25
55456;BME280;63021;52.836;6.376;2022-11-20T07:00:38;101301.75;;;-0.31;78.94
55456;BME280;63021;52.836;6.376;2022-11-20T07:03:05;101312.97;;;-0.29;78.82
55456;BME280;63021;52.836;6.376;2022-11-20T07:05:31;101322.47;;;-0.27;79.62
55456;BME280;63021;52.836;6.376;2022-11-20T07:07:59;101313.72;;;-0.26;78.61
55456;BME280;63021;52.836;6.376;2022-11-20T07:10:25;101315.47;;;-0.26;79.60
55456;BME280;63021;52.836;6.376;2022-11-20T07:12:52;101309.31;;;-0.25;79.54
55456;BME280;63021;52.836;6.376;2022-11-20T07:15:18;101314.50;;;-0.24;78.72
55456;BME280;63021;52.836;6.376;2022-11-20T07:17:45;101310.09;;;-0.23;79.11
55456;BME280;63021;52.836;6.376;2022-11-20T07:20:18;101304.78;;;-0.22;79.59
55456;BME280;63021;52.836;6.376;2022-11-20T07:22:44;101311.75;;;-0.21;79.44
55456;BME280;63021;52.836;6.376;2022-11-20T07:25:11;101302.97;;;-0.20;79.64
55456;BME280;63021;52.836;6.376;2022-11-20T07:27:36;101311.66;;;-0.19;79.42
55456;BME280;63021;52.836;6.376;2022-11-20T07:30:04;101299.47;;;-0.19;79.21
55456;BME280;63021;52.836;6.376;2022-11-20T07:32:29;101295.06;;;-0.18;78.95
55456;BME280;63021;52.836;6.376;2022-11-20T07:34:55;101291.59;;;-0.19;79.03
55456;BME280;63021;52.836;6.376;2022-11-20T07:37:20;101295.00;;;-0.16;79.36
55456;BME280;63021;52.836;6.376;2022-11-20T07:39:46;101283.69;;;-0.17;78.63
55456;BME280;63021;52.836;6.376;2022-11-20T07:42:11;101276.66;;;-0.16;79.16
55456;BME280;63021;52.836;6.376;2022-11-20T07:44:37;101291.47;;;-0.15;79.27
55456;BME280;63021;52.836;6.376;2022-11-20T07:47:06;101290.53;;;-0.14;79.44
55456;BME280;63021;52.836;6.376;2022-11-20T07:49:33;101294.09;;;-0.15;79.40
55456;BME280;63021;52.836;6.376;2022-11-20T07:51:58;101299.31;;;-0.15;78.68
55456;BME280;63021;52.836;6.376;2022-11-20T07:54:24;101298.38;;;-0.14;79.37
55456;BME280;63021;52.836;6.376;2022-11-20T07:56:49;101286.94;;;-0.12;79.39
55456;BME280;63021;52.836;6.376;2022-11-20T07:59:15;101285.13;;;-0.10;79.64
55456;BME280;63021;52.836;6.376;2022-11-20T08:01:41;101280.66;;;-0.08;78.67
55456;BME280;63021;52.836;6.376;2022-11-20T08:04:08;101291.06;;;-0.06;78.85
55456;BME280;63021;52.836;6.376;2022-11-20T08:06:34;101291.91;;;-0.06;78.78
55456;BME280;63021;52.836;6.376;2022-11-20T08:09:00;101296.28;;;-0.06;79.01
55456;BME280;63021;52.836;6.376;2022-11-20T08:11:25;101300.53;;;-0.04;78.57
55456;BME280;63021;52.836;6.376;2022-11-20T08:14:10;101296.22;;;-0.05;78.76
55456;BME280;63021;52.836;6.376;2022-11-20T08:16:46;101294.41;;;-0.03;78.99
55456;BME280;63021;52.836;6.376;2022-11-20T08:19:14;101290.00;;;-0.02;78.78
55456;BME280;63021;52.836;6.376;2022-11-20T08:21:40;101288.28;;;-0.03;78.54
55456;BME280;63021;52.836;6.376;2022-11-20T08:24:06;101294.47;;;-0.04;78.66
55456;BME280;63021;52.836;6.376;2022-11-20T08:26:32;101281.44;;;-0.06;78.20
55456;BME280;63021;52.836;6.376;2022-11-20T08:28:58;101277.06;;;-0.05;78.12
55456;BME280;63021;52.836;6.376;2022-11-20T08:31:25;101270.13;;;-0.06;78.17
55456;BME280;63021;52.836;6.376;2022-11-20T08:33:51;101271.88;;;-0.07;77.88
55456;BME280;63021;52.836;6.376;2022-11-20T08:36:19;101271.09;;;-0.09;78.46
55456;BME280;63021;52.836;6.376;2022-11-20T08:38:52;101272.88;;;-0.09;77.87
55456;BME280;63021;52.836;6.376;2022-11-20T08:41:17;101284.19;;;-0.09;78.16
55456;BME280;63021;52.836;6.376;2022-11-20T08:43:50;101286.72;;;-0.07;78.46
55456;BME280;63021;52.836;6.376;2022-11-20T08:46:15;101292.91;;;-0.08;77.85
55456;BME280;63021;52.836;6.376;2022-11-20T08:48:41;101304.13;;;-0.06;78.24
55456;BME280;63021;52.836;6.376;2022-11-20T08:51:07;101298.06;;;-0.07;78.36
55456;BME280;63021;52.836;6.376;2022-11-20T08:53:33;101291.84;;;-0.04;78.29
55456;BME280;63021;52.836;6.376;2022-11-20T08:55:58;101290.81;;;0.00;77.83
55456;BME280;63021;52.836;6.376;2022-11-20T08:58:25;101288.13;;;0.02;77.90
55456;BME280;63021;52.836;6.376;2022-11-20T09:00:50;101283.72;;;0.02;77.83
55456;BME280;63021;52.836;6.376;2022-11-20T09:03:16;101276.69;;;0.03;77.52
55456;BME280;63021;52.836;6.376;2022-11-20T09:05:41;101267.94;;;0.04;77.51
55456;BME280;63021;52.836;6.376;2022-11-20T09:08:09;101266.09;;;0.06;78.03
55456;BME280;63021;52.836;6.376;2022-11-20T09:10:35;101270.34;;;0.08;77.26
55456;BME280;63021;52.836;6.376;2022-11-20T09:13:01;101263.34;;;0.09;77.59
55456;BME280;63021;52.836;6.376;2022-11-20T09:15:27;101258.91;;;0.11;77.40
55456;BME280;63021;52.836;6.376;2022-11-20T09:18:05;101255.22;;;0.15;77.37
55456;BME280;63021;52.836;6.376;2022-11-20T09:20:31;101256.00;;;0.17;77.93
55456;BME280;63021;52.836;6.376;2022-11-20T09:22:57;101262.94;;;0.18;77.76
55456;BME280;63021;52.836;6.376;2022-11-20T09:25:23;101271.56;;;0.20;77.05
55456;BME280;63021;52.836;6.376;2022-11-20T09:27:54;101273.19;;;0.23;78.03
55456;BME280;63021;52.836;6.376;2022-11-20T09:30:20;101266.13;;;0.25;77.51
55456;BME280;63021;52.836;6.376;2022-11-20T09:32:45;101262.56;;;0.26;77.12
55456;BME280;63021;52.836;6.376;2022-11-20T09:35:11;101260.75;;;0.28;77.77
55456;BME280;63021;52.836;6.376;2022-11-20T09:37:36;101262.47;;;0.29;77.18
55456;BME280;63021;52.836;6.376;2022-11-20T09:40:02;101259.84;;;0.29;77.12
55456;BME280;63021;52.836;6.376;2022-11-20T09:42:55;101259.75;;;0.30;76.57
55456;BME280;63021;52.836;6.376;2022-11-20T09:45:30;101254.53;;;0.30;77.09
55456;BME280;63021;52.836;6.376;2022-11-20T09:55:51;101249.22;;;0.32;76.61
55456;BME280;63021;52.836;6.376;2022-11-20T09:58:36;101249.16;;;0.33;76.21
55456;BME280;63021;52.836;6.376;2022-11-20T10:01:17;101243.84;;;0.35;76.30
55456;BME280;63021;52.836;6.376;2022-11-20T10:06:39;101246.31;;;0.38;75.64
55456;BME280;63021;52.836;6.376;2022-11-20T10:11:53;101231.44;;;0.39;75.59
55456;BME280;63021;52.836;6.376;2022-11-20T10:20:30;101218.81;;;0.47;75.27
55456;BME280;63021;52.836;6.376;2022-11-20T10:31:38;101216.69;;;0.55;74.42
55456;BME280;63021;52.836;6.376;2022-11-20T10:34:24;101222.63;;;0.59;74.40
55456;BME280;63021;52.836;6.376;2022-11-20T10:42:11;101219.44;;;0.71;74.10
55456;BME280;63021;52.836;6.376;2022-11-20T10:44:47;101208.56;;;0.79;73.32
55456;BME280;63021;52.836;6.376;2022-11-20T10:47:28;101205.59;;;0.86;73.44
55456;BME280;63021;52.836;6.376;2022-11-20T10:49:58;101199.94;;;0.94;73.21
55456;BME280;63021;52.836;6.376;2022-11-20T11:00:24;101182.91;;;1.20;72.51
55456;BME280;63021;52.836;6.376;2022-11-20T11:02:51;101175.59;;;1.27;71.47
55456;BME280;63021;52.836;6.376;2022-11-20T11:07:56;101170.63;;;1.38;72.04
55456;BME280;63021;52.836;6.376;2022-11-20T11:10:28;101167.59;;;1.46;71.70
55456;BME280;63021;52.836;6.376;2022-11-20T11:12:56;101177.78;;;1.52;70.91
55456;BME280;63021;52.836;6.376;2022-11-20T11:17:56;101166.63;;;1.65;70.81
55456;BME280;63021;52.836;6.376;2022-11-20T11:20:23;101161.13;;;1.69;70.44
55456;BME280;63021;52.836;6.376;2022-11-20T11:22:52;101165.06;;;1.78;69.48
55456;BME280;63021;52.836;6.376;2022-11-20T11:25:33;101161.25;;;1.84;69.34
55456;BME280;63021;52.836;6.376;2022-11-20T11:30:28;101155.25;;;1.98;68.65
55456;BME280;63021;52.836;6.376;2022-11-20T11:33:06;101147.03;;;2.04;69.08
55456;BME280;63021;52.836;6.376;2022-11-20T11:35:31;101154.69;;;2.08;68.59
55456;BME280;63021;52.836;6.376;2022-11-20T11:38:14;101151.63;;;2.16;68.88
55456;BME280;63021;52.836;6.376;2022-11-20T11:40:41;101141.78;;;2.20;68.14
55456;BME280;63021;52.836;6.376;2022-11-20T11:43:17;101139.84;;;2.23;68.35
55456;BME280;63021;52.836;6.376;2022-11-20T11:46:29;101131.59;;;2.30;67.81
55456;BME280;63021;52.836;6.376;2022-11-20T11:54:23;101117.44;;;2.32;67.17
55456;BME280;63021;52.836;6.376;2022-11-20T11:56:51;101102.38;;;2.36;67.94
55456;BME280;63021;52.836;6.376;2022-11-20T11:59:43;101099.56;;;2.39;66.59
55456;BME280;63021;52.836;6.376;2022-11-20T12:02:35;101097.59;;;2.42;66.95
55456;BME280;63021;52.836;6.376;2022-11-20T12:05:22;101092.16;;;2.46;66.52
55456;BME280;63021;52.836;6.376;2022-11-20T12:07:56;101090.31;;;2.48;67.20
55456;BME280;63021;52.836;6.376;2022-11-20T12:10:43;101092.94;;;2.48;67.09
55456;BME280;63021;52.836;6.376;2022-11-20T12:13:45;101095.28;;;2.52;66.09
55456;BME280;63021;52.836;6.376;2022-11-20T12:16:15;101099.63;;;2.53;66.42
55456;BME280;63021;52.836;6.376;2022-11-20T12:18:43;101090.97;;;2.51;65.59
55456;BME280;63021;52.836;6.376;2022-11-20T12:21:18;101088.31;;;2.51;66.44
55456;BME280;63021;52.836;6.376;2022-11-20T12:23:53;101089.19;;;2.52;65.31
55456;BME280;63021;52.836;6.376;2022-11-20T12:29:35;101082.06;;;2.54;65.92
55456;BME280;63021;52.836;6.376;2022-11-20T12:37:49;101076.28;;;2.63;64.65
55456;BME280;63021;52.836;6.376;2022-11-20T12:54:05;101042.84;;;2.65;66.13
55456;BME280;63021;52.836;6.376;2022-11-20T13:02:30;101029.06;;;2.62;66.48
55456;BME280;63021;52.836;6.376;2022-11-20T13:07:25;101013.34;;;2.60;66.29
55456;BME280;63021;52.836;6.376;2022-11-20T13:09:53;101013.28;;;2.62;66.78
55456;BME280;63021;52.836;6.376;2022-11-20T13:12:33;101005.41;;;2.62;65.94
55456;BME280;63021;52.836;6.376;2022-11-20T13:15:14;101005.41;;;2.62;66.53
55456;BME280;63021;52.836;6.376;2022-11-20T13:20:19;100993.00;;;2.64;66.34
55456;BME280;63021;52.836;6.376;2022-11-20T13:22:50;100983.31;;;2.64;65.93
55456;BME280;63021;52.836;6.376;2022-11-20T13:27:53;100977.41;;;2.60;66.29
55456;BME280;63021;52.836;6.376;2022-11-20T13:30:24;100978.16;;;2.63;66.28
55456;BME280;63021;52.836;6.376;2022-11-20T13:32:52;100972.91;;;2.63;66.28
55456;BME280;63021;52.836;6.376;2022-11-20T13:35:32;100971.03;;;2.65;65.73
55456;BME280;63021;52.836;6.376;2022-11-20T13:40:32;100961.28;;;2.67;66.31
55456;BME280;63021;52.836;6.376;2022-11-20T13:43:19;100959.50;;;2.67;66.81
55456;BME280;63021;52.836;6.376;2022-11-20T13:46:06;100951.69;;;2.66;66.63
55456;BME280;63021;52.836;6.376;2022-11-20T13:48:38;100938.72;;;2.63;66.68
55456;BME280;63021;52.836;6.376;2022-11-20T13:54:22;100937.81;;;2.64;67.03
55456;BME280;63021;52.836;6.376;2022-11-20T13:57:07;100923.06;;;2.61;66.69
55456;BME280;63021;52.836;6.376;2022-11-20T13:59:49;100922.31;;;2.59;66.74
55456;BME280;63021;52.836;6.376;2022-11-20T14:02:22;100922.31;;;2.59;67.28
55456;BME280;63021;52.836;6.376;2022-11-20T14:04:51;100912.84;;;2.56;67.44
55456;BME280;63021;52.836;6.376;2022-11-20T14:07:20;100921.56;;;2.57;67.40
55456;BME280;63021;52.836;6.376;2022-11-20T14:09:54;100918.09;;;2.56;67.95
55456;BME280;63021;52.836;6.376;2022-11-20T14:12:23;100911.13;;;2.55;68.38
55456;BME280;63021;52.836;6.376;2022-11-20T14:14:53;100911.22;;;2.54;67.87
55456;BME280;63021;52.836;6.376;2022-11-20T14:19:56;100915.66;;;2.53;68.37
55456;BME280;63021;52.836;6.376;2022-11-20T14:22:27;100903.53;;;2.51;68.00
55456;BME280;63021;52.836;6.376;2022-11-20T14:27:27;100894.91;;;2.49;67.81
55456;BME280;63021;52.836;6.376;2022-11-20T14:29:53;100892.38;;;2.47;68.92
55456;BME280;63021;52.836;6.376;2022-11-20T14:32:20;100891.53;;;2.47;67.70
55456;BME280;63021;52.836;6.376;2022-11-20T14:34:48;100881.94;;;2.46;68.62
55456;BME280;63021;52.836;6.376;2022-11-20T14:37:23;100885.53;;;2.45;67.93
55456;BME280;63021;52.836;6.376;2022-11-20T14:39:54;100875.22;;;2.41;68.27
55456;BME280;63021;52.836;6.376;2022-11-20T14:42:23;100874.44;;;2.39;69.41
55456;BME280;63021;52.836;6.376;2022-11-20T14:44:50;100869.38;;;2.36;68.31